createdAt,value
2023-10-24T00:03:36.132Z,63.64
2023-10-24T00:06:04.815Z,63.47
2023-10-24T00:08:33.130Z,63.34
2023-10-24T00:11:02.850Z,63.08
2023-10-24T00:13:32.321Z,63.01
2023-10-24T00:16:02.065Z,62.89
2023-10-24T00:18:31.273Z,62.78
2023-10-24T00:21:00.236Z,62.70
2023-10-24T00:23:29.186Z,62.67
2023-10-24T00:25:57.871Z,62.59
2023-10-24T00:28:26.195Z,62.44
2023-10-24T00:30:54.532Z,62.31
2023-10-24T00:33:22.909Z,62.26
2023-10-24T00:35:51.868Z,62.23
2023-10-24T00:38:20.585Z,62.23
2023-10-24T00:40:49.153Z,62.21
2023-10-24T00:43:17.921Z,62.16
2023-10-24T00:45:46.626Z,62.22
2023-10-24T00:48:15.762Z,62.26
2023-10-24T00:50:44.702Z,62.30
2023-10-24T00:53:13.861Z,62.32
2023-10-24T00:55:43.047Z,62.43
2023-10-24T00:58:12.366Z,62.54
2023-10-24T01:00:45.792Z,62.63
2023-10-24T01:03:16.022Z,62.76
2023-10-24T01:05:45.543Z,62.84
2023-10-24T01:08:13.885Z,62.91
2023-10-24T01:10:42.851Z,62.95
2023-10-24T01:13:11.443Z,62.96
2023-10-24T01:15:39.908Z,62.90
2023-10-24T01:18:08.200Z,62.94
2023-10-24T01:20:37.201Z,62.87
2023-10-24T01:23:06.413Z,62.76
2023-10-24T01:25:40.409Z,62.46
2023-10-24T01:28:10.731Z,62.17
2023-10-24T01:30:41.060Z,61.82
2023-10-24T01:33:09.782Z,61.49
2023-10-24T01:35:38.285Z,61.19
2023-10-24T01:38:07.327Z,60.99
2023-10-24T01:40:35.839Z,60.50
2023-10-24T01:43:04.991Z,60.08
2023-10-24T01:45:34.555Z,59.63
2023-10-24T01:48:03.216Z,59.22
2023-10-24T01:50:31.555Z,58.77
2023-10-24T01:53:00.026Z,58.39
2023-10-24T01:55:29.074Z,58.03
2023-10-24T01:57:57.468Z,57.84
2023-10-24T02:00:26.036Z,57.57
2023-10-24T02:02:55.904Z,57.01
2023-10-24T02:05:24.966Z,56.73
2023-10-24T02:07:53.339Z,56.42
2023-10-24T02:10:21.692Z,56.22
2023-10-24T02:12:50.161Z,55.88
2023-10-24T02:15:18.571Z,55.56
2023-10-24T02:17:47.193Z,55.30
2023-10-24T02:20:15.992Z,55.17
2023-10-24T02:22:48.731Z,54.97
2023-10-24T02:25:17.441Z,55.11
2023-10-24T02:27:46.080Z,55.13
2023-10-24T02:30:14.988Z,55.10
2023-10-24T02:32:43.698Z,55.03
2023-10-24T02:35:12.009Z,55.00
2023-10-24T02:37:40.711Z,54.98
2023-10-24T02:40:10.921Z,54.90
2023-10-24T02:42:39.381Z,54.63
2023-10-24T02:45:08.453Z,54.47
2023-10-24T02:47:36.936Z,54.40
2023-10-24T02:50:06.280Z,54.12
2023-10-24T02:52:34.728Z,54.12
2023-10-24T02:55:03.252Z,53.92
2023-10-24T02:57:31.619Z,53.84
2023-10-24T03:00:00.146Z,53.79
2023-10-24T03:02:28.641Z,53.47
2023-10-24T03:04:57.130Z,53.27
2023-10-24T03:07:25.459Z,53.16
2023-10-24T03:09:54.064Z,53.01
2023-10-24T03:12:22.213Z,52.87
2023-10-24T03:14:52.763Z,52.80
2023-10-24T03:17:21.395Z,52.66
2023-10-24T03:19:49.857Z,52.75
2023-10-24T03:22:18.237Z,52.58
2023-10-24T03:24:47.070Z,52.76
2023-10-24T03:27:15.307Z,52.78
2023-10-24T03:29:44.844Z,52.83
2023-10-24T03:32:13.165Z,52.84
2023-10-24T03:34:43.639Z,52.63
2023-10-24T03:37:12.133Z,52.67
2023-10-24T03:39:40.790Z,52.65
2023-10-24T03:42:09.057Z,52.55
2023-10-24T03:44:38.045Z,52.38
2023-10-24T03:47:07.377Z,52.37
2023-10-24T03:49:35.890Z,52.25
2023-10-24T03:52:05.275Z,52.37
2023-10-24T03:54:33.785Z,52.30
2023-10-24T03:57:02.933Z,52.36
2023-10-24T03:59:31.337Z,52.48
2023-10-24T04:01:59.671Z,52.38
2023-10-24T04:04:30.880Z,52.24
2023-10-24T04:06:59.241Z,52.04
2023-10-24T04:09:38.164Z,52.12
2023-10-24T04:12:07.913Z,51.91
2023-10-24T04:14:36.831Z,51.57
2023-10-24T04:17:06.405Z,51.62
2023-10-24T04:19:35.232Z,51.42
2023-10-24T04:22:03.813Z,51.27
2023-10-24T04:24:32.185Z,51.12
2023-10-24T04:27:00.739Z,50.99
2023-10-24T04:29:28.969Z,50.73
2023-10-24T04:31:57.260Z,50.64
2023-10-24T04:34:26.255Z,50.38
2023-10-24T04:36:57.860Z,50.18
2023-10-24T04:39:28.458Z,50.19
2023-10-24T04:41:56.696Z,49.96
2023-10-24T04:44:26.317Z,49.87
2023-10-24T04:46:54.829Z,49.82
2023-10-24T04:49:24.185Z,49.83
2023-10-24T04:51:53.508Z,49.79
2023-10-24T04:54:23.113Z,49.75
2023-10-24T04:56:51.568Z,49.65
2023-10-24T04:59:20.468Z,49.77
2023-10-24T05:01:50.706Z,49.42
2023-10-24T05:04:22.553Z,49.36
2023-10-24T05:06:52.192Z,49.51
2023-10-24T05:09:21.114Z,49.55
2023-10-24T05:11:50.589Z,49.59
2023-10-24T05:14:19.500Z,49.39
2023-10-24T05:16:55.359Z,49.44
2023-10-24T05:19:24.749Z,49.46
2023-10-24T05:21:54.195Z,49.38
2023-10-24T05:24:22.539Z,49.27
2023-10-24T05:26:51.788Z,49.22
2023-10-24T05:29:20.624Z,49.11
2023-10-24T05:31:49.025Z,49.04
2023-10-24T05:34:17.606Z,48.88
2023-10-24T05:36:47.605Z,48.95
2023-10-24T05:39:16.407Z,48.83
2023-10-24T05:41:44.721Z,48.80
2023-10-24T05:44:13.158Z,48.87
2023-10-24T05:46:42.411Z,48.75
2023-10-24T05:49:11.462Z,48.65
2023-10-24T05:51:40.044Z,48.62
2023-10-24T05:54:08.857Z,48.66
2023-10-24T05:56:37.728Z,48.50
2023-10-24T05:59:06.005Z,48.53
2023-10-24T06:01:34.499Z,48.51
2023-10-24T06:04:03.270Z,48.53
2023-10-24T06:06:31.801Z,48.54
2023-10-24T06:09:00.109Z,48.65
2023-10-24T06:11:29.017Z,48.61
2023-10-24T06:13:57.491Z,48.58
2023-10-24T06:16:25.946Z,48.59
2023-10-24T06:18:54.359Z,48.64
2023-10-24T06:21:24.403Z,48.56
2023-10-24T06:23:53.731Z,48.60
2023-10-24T06:26:22.287Z,48.64
2023-10-24T06:28:50.660Z,48.59
2023-10-24T06:31:19.271Z,48.57
2023-10-24T06:33:47.734Z,48.64
2023-10-24T06:36:16.026Z,48.59
2023-10-24T06:38:44.313Z,48.64
2023-10-24T06:41:12.726Z,48.71
2023-10-24T06:43:41.252Z,48.96
2023-10-24T06:46:09.681Z,48.77
2023-10-24T06:48:38.453Z,48.79
2023-10-24T06:51:06.849Z,49.04
2023-10-24T06:53:35.389Z,48.52
2023-10-24T06:56:04.691Z,47.79
2023-10-24T06:58:33.010Z,46.04
2023-10-24T07:01:01.814Z,43.84
2023-10-24T07:03:30.226Z,41.72
2023-10-24T07:05:59.427Z,39.86
2023-10-24T07:08:27.770Z,38.28
2023-10-24T07:10:56.416Z,36.82
2023-10-24T07:13:24.940Z,35.50
2023-10-24T07:15:53.413Z,35.20
2023-10-24T07:18:21.991Z,34.59
2023-10-24T07:20:50.346Z,33.94
2023-10-24T07:23:18.762Z,32.85
2023-10-24T07:25:47.906Z,30.96
2023-10-24T07:28:16.931Z,30.24
2023-10-24T07:30:50.252Z,29.26
2023-10-24T07:33:23.036Z,28.20
2023-10-24T07:35:51.464Z,27.10
2023-10-24T07:38:20.133Z,26.92
2023-10-24T07:40:51.439Z,25.89
2023-10-24T07:43:19.964Z,24.98
2023-10-24T07:45:52.417Z,24.63
2023-10-24T07:48:22.038Z,24.16
2023-10-24T07:50:55.297Z,22.96
2023-10-24T07:53:25.850Z,22.15
2023-10-24T07:55:54.847Z,21.62
2023-10-24T07:58:26.469Z,21.21
2023-10-24T08:00:55.643Z,20.61
2023-10-24T08:03:24.030Z,19.88
2023-10-24T08:05:53.828Z,19.67
2023-10-24T08:08:23.443Z,19.55
2023-10-24T08:10:53.166Z,19.05
2023-10-24T08:13:21.773Z,18.54
2023-10-24T08:15:53.503Z,18.30
2023-10-24T08:18:23.133Z,17.94
2023-10-24T08:20:51.552Z,17.89
2023-10-24T08:23:21.556Z,17.59
2023-10-24T08:25:49.973Z,16.95
2023-10-24T08:28:20.078Z,17.01
2023-10-24T08:30:54.798Z,16.65
2023-10-24T08:33:23.509Z,16.93
2023-10-24T08:35:52.063Z,17.03
2023-10-24T08:38:22.724Z,17.12
2023-10-24T08:40:51.444Z,17.53
2023-10-24T08:43:24.131Z,18.17
2023-10-24T08:45:53.591Z,18.78
2023-10-24T08:48:25.152Z,19.24
2023-10-24T08:50:53.789Z,19.04
2023-10-24T08:53:22.186Z,18.99
2023-10-24T08:55:51.909Z,18.58
2023-10-24T08:58:22.128Z,18.03
2023-10-24T09:00:52.458Z,17.75
2023-10-24T09:03:23.862Z,17.43
2023-10-24T09:05:53.553Z,17.38
2023-10-24T09:08:21.931Z,17.28
2023-10-24T09:10:50.761Z,16.81
2023-10-24T09:13:19.580Z,16.72
2023-10-24T09:16:06.349Z,16.54
2023-10-24T09:18:36.953Z,16.43
2023-10-24T09:21:10.095Z,16.29
2023-10-24T09:23:39.413Z,16.16
2023-10-24T09:26:09.275Z,16.14
2023-10-24T09:28:38.452Z,15.87
2023-10-24T09:31:06.738Z,15.81
2023-10-24T09:33:42.053Z,15.76
2023-10-24T09:36:15.675Z,15.61
2023-10-24T09:38:47.087Z,15.67
2023-10-24T09:41:15.575Z,15.48
2023-10-24T09:43:49.332Z,15.51
2023-10-24T09:46:20.403Z,15.53
2023-10-24T09:48:48.998Z,15.61
2023-10-24T09:51:23.058Z,15.39
2023-10-24T09:53:53.150Z,15.43
2023-10-24T09:56:22.672Z,15.50
2023-10-24T09:58:52.769Z,15.47
2023-10-24T10:01:22.567Z,15.30
2023-10-24T10:03:51.775Z,15.06
2023-10-24T10:06:33.115Z,15.26
2023-10-24T10:09:13.434Z,15.36
2023-10-24T10:11:46.518Z,15.37
2023-10-24T10:14:30.722Z,15.35
2023-10-24T10:16:59.024Z,15.47
2023-10-24T10:19:52.735Z,15.43
2023-10-24T10:22:42.421Z,15.89
2023-10-24T10:25:32.653Z,16.06
2023-10-24T10:28:17.281Z,15.48
2023-10-24T10:32:39.836Z,15.85
2023-10-24T10:33:56.158Z,16.58
2023-10-24T10:36:26.443Z,16.62
2023-10-24T10:38:54.929Z,16.78
2023-10-24T10:41:26.095Z,16.90
2023-10-24T10:43:56.696Z,16.89
2023-10-24T10:46:34.218Z,17.11
2023-10-24T10:49:04.984Z,17.49
2023-10-24T10:51:40.646Z,17.47
2023-10-24T10:54:21.409Z,17.55
2023-10-24T10:56:50.556Z,17.49
2023-10-24T10:59:33.578Z,17.42
2023-10-24T11:02:26.402Z,17.38
2023-10-24T11:04:54.753Z,17.06
2023-10-24T11:07:52.579Z,16.71
2023-10-24T11:10:21.086Z,16.76
2023-10-24T11:12:49.839Z,16.78
2023-10-24T11:15:24.123Z,16.76
2023-10-24T11:17:53.892Z,17.00
2023-10-24T11:20:23.965Z,17.13
2023-10-24T11:22:52.648Z,17.12
2023-10-24T11:25:21.154Z,17.57
2023-10-24T11:27:49.797Z,17.31
2023-10-24T11:30:19.173Z,17.10
2023-10-24T11:32:47.676Z,17.00
2023-10-24T11:35:16.131Z,17.32
2023-10-24T11:37:44.383Z,17.26
2023-10-24T11:40:13.342Z,17.40
2023-10-24T11:42:41.865Z,17.68
2023-10-24T11:45:10.648Z,17.59
2023-10-24T11:47:38.982Z,17.79
2023-10-24T11:50:07.892Z,17.90
2023-10-24T11:52:36.424Z,17.81
2023-10-24T11:55:05.796Z,17.66
2023-10-24T11:57:34.290Z,17.83
2023-10-24T12:00:02.591Z,18.11
2023-10-24T12:02:41.884Z,18.01
2023-10-24T12:05:10.643Z,17.89
2023-10-24T12:07:39.066Z,18.18
2023-10-24T12:10:11.790Z,18.05
2023-10-24T12:12:43.516Z,18.11
2023-10-24T12:15:12.333Z,18.16
2023-10-24T12:17:45.030Z,18.33
2023-10-24T12:20:14.119Z,18.42
2023-10-24T12:22:42.967Z,18.40
2023-10-24T12:25:11.502Z,18.18
2023-10-24T12:27:41.590Z,18.04
2023-10-24T12:30:10.160Z,17.85
2023-10-24T12:32:39.254Z,17.80
2023-10-24T12:35:08.107Z,18.10
2023-10-24T12:37:37.421Z,18.29
2023-10-24T12:40:06.571Z,18.17
2023-10-24T12:42:35.341Z,18.38
2023-10-24T12:45:05.019Z,18.52
2023-10-24T12:47:34.105Z,18.61
2023-10-24T12:50:02.630Z,18.43
2023-10-24T12:52:31.333Z,18.48
2023-10-24T12:54:59.745Z,17.79
2023-10-24T12:57:28.158Z,17.94
2023-10-24T12:59:56.794Z,17.85
2023-10-24T13:02:25.219Z,17.76
2023-10-24T13:04:54.359Z,17.83
2023-10-24T13:07:22.648Z,17.99
2023-10-24T13:09:50.966Z,17.89
2023-10-24T13:12:19.445Z,17.83
2023-10-24T13:14:47.702Z,17.74
2023-10-24T13:17:16.534Z,17.81
2023-10-24T13:19:47.267Z,17.69
2023-10-24T13:22:15.610Z,17.61
2023-10-24T13:24:43.959Z,17.78
2023-10-24T13:27:12.334Z,17.64
2023-10-24T13:29:40.970Z,17.74
2023-10-24T13:32:09.763Z,17.75
2023-10-24T13:37:10.282Z,17.75
2023-10-24T13:39:39.119Z,18.24
2023-10-24T13:42:07.518Z,18.81
2023-10-24T13:44:36.229Z,19.48
2023-10-24T13:47:04.740Z,22.06
2023-10-24T13:49:33.186Z,23.81
2023-10-24T13:52:02.620Z,26.61
2023-10-24T13:54:31.138Z,27.92
2023-10-24T13:56:59.451Z,28.68
2023-10-24T13:59:27.702Z,28.85
2023-10-24T14:01:56.070Z,29.17
2023-10-24T14:04:24.731Z,29.33
2023-10-24T14:06:53.126Z,29.64
2023-10-24T14:09:21.696Z,29.15
2023-10-24T14:11:49.936Z,29.12
2023-10-24T14:14:18.246Z,29.52
2023-10-24T14:16:47.041Z,30.27
2023-10-24T14:19:15.399Z,30.68
2023-10-24T14:21:43.711Z,30.66
2023-10-24T14:24:12.615Z,30.86
2023-10-24T14:26:40.792Z,31.57
2023-10-24T14:29:09.176Z,32.55
2023-10-24T14:31:37.789Z,34.00
2023-10-24T14:34:06.239Z,35.12
2023-10-24T14:36:34.536Z,35.85
2023-10-24T14:39:02.956Z,37.04
2023-10-24T14:41:31.480Z,37.17
2023-10-24T14:44:00.438Z,37.11
2023-10-24T14:46:29.061Z,37.37
2023-10-24T14:48:57.582Z,38.18
2023-10-24T14:51:26.568Z,38.77
2023-10-24T14:53:55.406Z,39.82
2023-10-24T14:56:23.751Z,40.37
2023-10-24T14:58:52.038Z,42.27
2023-10-24T15:01:20.387Z,43.01
2023-10-24T15:03:48.828Z,45.17
2023-10-24T15:06:18.349Z,45.20
2023-10-24T15:08:47.064Z,45.00
2023-10-24T15:11:15.289Z,45.07
2023-10-24T15:13:43.628Z,44.58
2023-10-24T15:16:12.170Z,44.55
2023-10-24T15:18:40.759Z,44.61
2023-10-24T15:21:09.136Z,44.81
2023-10-24T15:23:37.520Z,45.25
2023-10-24T15:26:05.997Z,45.45
2023-10-24T15:28:34.492Z,45.81
2023-10-24T15:31:08.560Z,45.99
2023-10-24T15:33:37.108Z,46.53
2023-10-24T15:36:05.764Z,46.87
2023-10-24T15:38:34.455Z,46.97
2023-10-24T15:41:03.022Z,47.24
2023-10-24T15:43:32.251Z,47.35
2023-10-24T15:46:18.926Z,48.11
2023-10-24T15:48:50.899Z,48.33
2023-10-24T15:51:20.072Z,48.44
2023-10-24T15:53:48.912Z,48.82
2023-10-24T15:56:17.492Z,48.83
2023-10-24T15:58:46.054Z,48.67
2023-10-24T16:01:19.347Z,48.53
2023-10-24T16:03:48.095Z,48.70
2023-10-24T16:06:16.569Z,48.40
2023-10-24T16:08:44.789Z,48.17
2023-10-24T16:11:13.772Z,47.66
2023-10-24T16:13:42.296Z,47.64
2023-10-24T16:16:11.540Z,47.48
2023-10-24T16:18:40.088Z,47.40
2023-10-24T16:21:08.484Z,47.46
2023-10-24T16:23:37.110Z,47.69
2023-10-24T16:26:05.874Z,48.00
2023-10-24T16:28:34.524Z,48.05
2023-10-24T16:31:02.922Z,47.99
2023-10-24T16:33:31.421Z,48.18
2023-10-24T16:36:02.387Z,48.31
2023-10-24T16:38:30.980Z,48.64
2023-10-24T16:41:00.178Z,48.94
2023-10-24T16:43:29.913Z,49.04
2023-10-24T16:45:59.032Z,49.19
2023-10-24T16:48:27.430Z,49.53
2023-10-24T16:50:57.547Z,49.60
2023-10-24T16:53:27.293Z,49.85
2023-10-24T16:55:57.082Z,50.21
2023-10-24T16:58:26.148Z,50.48
2023-10-24T17:00:56.212Z,50.54
2023-10-24T17:03:24.669Z,50.65
2023-10-24T17:05:54.190Z,50.77
2023-10-24T17:08:22.659Z,50.95
2023-10-24T17:10:59.037Z,51.23
2023-10-24T17:13:27.630Z,51.38
2023-10-24T17:15:59.839Z,51.80
2023-10-24T17:18:28.250Z,52.19
2023-10-24T17:20:56.796Z,52.78
2023-10-24T17:23:25.980Z,52.98
2023-10-24T17:25:54.753Z,53.06
2023-10-24T17:28:23.123Z,53.33
2023-10-24T17:30:52.692Z,53.46
2023-10-24T17:33:21.104Z,53.85
2023-10-24T17:35:50.975Z,54.06
2023-10-24T17:38:19.620Z,54.09
2023-10-24T17:40:48.174Z,54.11
2023-10-24T17:43:16.540Z,54.17
2023-10-24T17:45:45.050Z,54.23
2023-10-24T17:48:13.513Z,54.20
2023-10-24T17:50:42.321Z,54.27
2023-10-24T17:53:11.522Z,54.28
2023-10-24T17:55:41.752Z,54.49
2023-10-24T17:58:10.291Z,54.34
2023-10-24T18:00:38.726Z,54.16
2023-10-24T18:03:07.143Z,53.67
2023-10-24T18:05:38.686Z,53.35
2023-10-24T18:08:07.940Z,53.04
2023-10-24T18:10:36.656Z,52.85
2023-10-24T18:13:05.032Z,52.66
2023-10-24T18:15:33.836Z,52.41
2023-10-24T18:18:02.282Z,52.35
2023-10-24T18:20:34.999Z,52.21
2023-10-24T18:23:03.402Z,51.87
2023-10-24T18:25:31.692Z,51.87
2023-10-24T18:28:00.053Z,51.75
2023-10-24T18:30:28.388Z,51.40
2023-10-24T18:32:56.682Z,51.18
2023-10-24T18:35:25.430Z,50.98
2023-10-24T18:37:53.722Z,50.83
2023-10-24T18:40:22.076Z,50.62
2023-10-24T18:42:51.107Z,50.54
2023-10-24T18:45:19.392Z,50.42
2023-10-24T18:47:47.651Z,50.33
2023-10-24T18:52:44.780Z,50.01
2023-10-24T18:55:13.216Z,49.60
2023-10-24T18:57:41.981Z,49.55
2023-10-24T19:00:10.682Z,49.55
2023-10-24T19:02:39.862Z,49.44
2023-10-24T19:05:08.631Z,49.14
2023-10-24T19:07:37.405Z,49.12
2023-10-24T19:10:07.281Z,48.68
2023-10-24T19:12:36.418Z,48.01
2023-10-24T19:15:06.611Z,47.37
2023-10-24T19:17:35.069Z,47.02
2023-10-24T19:20:04.468Z,46.79
2023-10-24T19:22:33.280Z,46.59
2023-10-24T19:25:04.029Z,46.54
2023-10-24T19:27:34.506Z,46.52
2023-10-24T19:30:03.115Z,46.31
2023-10-24T19:32:31.782Z,45.92
2023-10-24T19:35:00.506Z,45.71
2023-10-24T19:37:29.946Z,45.46
2023-10-24T19:39:58.607Z,45.18
2023-10-24T19:42:27.626Z,44.99
2023-10-24T19:44:56.809Z,44.78
2023-10-24T19:47:29.133Z,44.45
2023-10-24T19:49:57.604Z,44.07
2023-10-24T19:52:26.341Z,43.68
2023-10-24T19:54:55.081Z,43.16
2023-10-24T19:57:23.661Z,42.43
2023-10-24T19:59:52.071Z,41.59
2023-10-24T20:02:21.015Z,40.96
2023-10-24T20:04:50.045Z,40.33
2023-10-24T20:07:20.530Z,39.77
2023-10-24T20:11:34.913Z,39.24
2023-10-24T20:12:43.367Z,38.71
2023-10-24T20:15:12.742Z,38.88
2023-10-24T20:17:43.010Z,38.95
2023-10-24T20:20:13.649Z,39.19
2023-10-24T20:22:42.610Z,39.42
2023-10-24T20:25:11.064Z,39.87
2023-10-24T20:27:40.928Z,40.10
2023-10-24T20:30:10.120Z,40.07
2023-10-24T20:32:38.635Z,40.32
2023-10-24T20:35:07.248Z,40.58
2023-10-24T20:37:35.697Z,40.84
2023-10-24T20:40:05.205Z,40.61
2023-10-24T20:42:34.143Z,40.39
2023-10-24T20:45:03.337Z,40.09
2023-10-24T20:47:31.671Z,40.02
2023-10-24T20:50:00.163Z,39.74
2023-10-24T20:52:28.774Z,39.65
2023-10-24T20:54:57.341Z,39.60
2023-10-24T20:57:25.742Z,39.51
2023-10-24T20:59:54.391Z,39.26
2023-10-24T21:02:23.842Z,38.67
2023-10-24T21:04:52.607Z,38.23
2023-10-24T21:07:21.338Z,38.06
2023-10-24T21:09:49.727Z,37.96
2023-10-24T21:12:18.247Z,37.69
2023-10-24T21:14:47.733Z,37.51
2023-10-24T21:17:16.480Z,37.57
2023-10-24T21:19:45.064Z,37.44
2023-10-24T21:22:14.128Z,37.26
2023-10-24T21:24:44.618Z,37.18
2023-10-24T21:27:13.338Z,37.27
2023-10-24T21:29:42.293Z,37.00
2023-10-24T21:32:11.152Z,36.79
2023-10-24T21:34:40.350Z,36.82
2023-10-24T21:37:09.301Z,36.91
2023-10-24T21:39:37.914Z,36.63
2023-10-24T21:42:06.900Z,36.36
2023-10-24T21:44:43.521Z,36.26
2023-10-24T21:47:19.283Z,36.10
2023-10-24T21:49:47.842Z,36.02
2023-10-24T21:52:16.348Z,35.89
2023-10-24T21:54:45.663Z,35.84
2023-10-24T21:57:14.308Z,35.92
2023-10-24T21:59:43.565Z,35.87
2023-10-24T22:02:13.608Z,35.72
2023-10-24T22:04:42.037Z,35.76
2023-10-24T22:07:11.086Z,35.68
2023-10-24T22:09:40.090Z,35.74
2023-10-24T22:12:08.942Z,35.71
2023-10-24T22:14:37.342Z,35.70
2023-10-24T22:17:06.014Z,35.69
2023-10-24T22:19:34.397Z,35.65
2023-10-24T22:22:03.128Z,35.59
2023-10-24T22:24:31.882Z,35.53
2023-10-24T22:27:00.197Z,35.45
2023-10-24T22:29:28.550Z,35.44
2023-10-24T22:31:57.018Z,35.39
2023-10-24T22:34:25.462Z,35.41
2023-10-24T22:36:53.817Z,35.35
2023-10-24T22:39:22.206Z,35.42
2023-10-24T22:41:50.577Z,35.38
2023-10-24T22:44:19.212Z,35.41
2023-10-24T22:46:47.832Z,35.32
2023-10-24T22:49:16.223Z,35.30
2023-10-24T22:51:45.756Z,35.40
2023-10-24T22:54:14.281Z,35.38
2023-10-24T22:56:42.564Z,35.17
2023-10-24T22:59:10.842Z,35.33
2023-10-24T23:01:39.246Z,35.39
2023-10-24T23:04:07.568Z,35.40
2023-10-24T23:06:35.989Z,35.41
2023-10-24T23:09:04.719Z,35.61
2023-10-24T23:11:33.295Z,35.62
2023-10-24T23:14:01.852Z,35.63
2023-10-24T23:16:31.076Z,35.56
2023-10-24T23:18:59.704Z,35.72
2023-10-24T23:21:28.167Z,35.58
2023-10-24T23:23:57.011Z,35.54
2023-10-24T23:26:25.265Z,35.43
2023-10-24T23:28:53.674Z,35.47
2023-10-24T23:31:22.404Z,35.46
2023-10-24T23:33:54.447Z,35.48
2023-10-24T23:36:22.916Z,35.27
2023-10-24T23:38:51.200Z,35.22
2023-10-24T23:41:20.086Z,35.22
2023-10-24T23:43:48.750Z,35.28
2023-10-24T23:46:17.190Z,35.44
2023-10-24T23:48:45.923Z,35.27
2023-10-24T23:51:14.354Z,35.34
2023-10-24T23:53:42.704Z,35.23
2023-10-24T23:56:11.111Z,35.19
2023-10-24T23:58:39.716Z,35.22
